x

Cape Lookout, Nc (clkn7) Weather Station

12:00pm - Thu 24th Jul 2014 All times are EDT. -4 hours from GMT.

  • Wind
    13mph, 17mph gusts
  • Air Temp 84°f
  • Sea Pressure 1012.7mb
  • Cape Lookout, Nc
  • Cape Lookout, Nc

More Historic Weather Station data

Upgrade to MSW Pro to gain access to the past 30 days of data for over 8000 Wavebouys and Weather Stations around the globe.

Join Pro

Comparision Forecast

View Surf forecast
   
Thu 07/24 12:00pm 13 17 mph 1012.7mb 84f
11:00am 11 16 mph 1013.4mb 83f
10:00am 13 17 mph 1013.4mb 83f
9:00am 16 21 mph 1013.4mb 82f
8:00am 17 22 mph 1013.3mb 81f
7:00am 14 17 mph 1013.2mb 80f
6:00am 13 17 mph 1012.9mb 80f
5:00am 14 16 mph 1013mb 80f
4:00am 14 21 mph 1012.9mb 80f
3:00am 13 17 mph 1013.3mb 80f
2:00am 13 16 mph 1013.8mb 80f
1:00am 14 18 mph 1014.3mb 80f
12:00am 10 15 mph 1014.2mb 80f
Wed 07/23 11:00pm 13 17 mph 1014.3mb 80f
10:00pm 14 18 mph 1014.4mb 80f
9:00pm 10 14 mph 1014.4mb 80f
8:00pm 14 18 mph 1014.4mb 80f
7:00pm 14 17 mph 1014.5mb 80f
6:00pm 13 14 mph 1014.6mb 82f
5:00pm 14 17 mph 1014.9mb 82f
4:00pm 14 16 mph 1015.6mb 82f
3:00pm 13 14 mph 1016.7mb 81f
2:00pm 13 15 mph 1016.6mb 80f
1:00pm 13 16 mph 1017.1mb 82f
12:00pm 9 10 mph 1017.7mb 82f
11:00am 7 10 mph 1017.9mb 82f
10:00am 9 10 mph 1018mb 81f
9:00am 10 11 mph 1018.1mb 81f
8:00am 10 11 mph 1018mb 80f
7:00am 7 9 mph 1017.6mb 79f
6:00am 7 9 mph 1017.8mb 78f
5:00am 10 13 mph 1017.8mb 78f
4:00am 10 14 mph 1017.7mb 78f
3:00am 9 14 mph 1018.2mb 79f
2:00am 10 14 mph 1018.6mb 79f
1:00am 8 11 mph 1018.8mb 78f
12:00am 9 13 mph 1018.8mb 78f
Tue 07/22 11:00pm 13 15 mph 1019.3mb 78f
10:00pm 17 20 mph 1019.5mb 79f
9:00pm 18 21 mph 1019.2mb 79f
8:00pm 21 23 mph 1018.9mb 79f
7:00pm 18 22 mph 1019.2mb 79f
6:00pm 17 18 mph 1019mb 79f
5:00pm 16 17 mph 1019.4mb 78f
4:00pm 17 20 mph 1019.7mb 78f
3:00pm 17 18 mph 1020mb 77f
2:00pm 13 14 mph 1019.8mb 77f
1:00pm 16 18 mph 1020.5mb 76f
12:00pm 15 17 mph 1020.9mb 78f
11:00am 15
mph
1020.7mb 78f
10:00am 10
mph
1020.6mb 78f
9:00am 7
mph
1020.1mb 76f
8:00am 8 10 mph 1020.2mb 76f
7:00am  -  1 mph 1019.7mb 78f
6:00am 6
mph
1019mb 78f
5:00am 6
mph
1019mb 77f
4:00am 5
mph
1018.9mb 78f
3:00am 6 8 mph 1019mb 79f
2:00am 9 11 mph 1019.1mb 79f
1:00am 3 5 mph 1019.5mb 79f
12:00am 6
mph
1020mb 79f
Mon 07/21 11:00pm 13
mph
1019.9mb 78f
10:00pm 13 15 mph 1019.6mb 78f
9:00pm 14
mph
1019.7mb 78f
8:00pm 13 14 mph 1019.9mb 78f
7:00pm 7 8 mph 1019.8mb 78f
6:00pm 6 7 mph 1019.6mb 76f
5:00pm 8 11 mph 1020.2mb 75f
4:00pm 21 23 mph 1019.8mb 76f
3:00pm 3 5 mph 1019.8mb 79f
2:00pm 14 16 mph 1020.2mb 79f
1:00pm 9 10 mph 1020.3mb 80f
12:00pm 10 11 mph 1020.5mb 80f
11:00am 9 10 mph 1020.2mb 80f
10:00am 9 10 mph 1019.8mb 80f
9:00am 6
mph
1020.1mb 80f
8:00am 7
mph
1019.9mb 80f
7:00am 7 8 mph 1019.3mb 79f
6:00am 6 7 mph 1018.7mb 79f
5:00am 3 5 mph 1018.1mb 79f
4:00am 2
mph
1018.2mb 80f
3:00am 1
mph
1018.3mb 80f
2:00am 8 9 mph 1018.7mb 80f
1:00am 8 9 mph 1019mb 80f
12:00am 6 7 mph 1019.4mb 80f
Sun 07/20 11:00pm 8 9 mph 1019.2mb 80f
10:00pm 8 9 mph 1019.1mb 80f
9:00pm 10
mph
1018.6mb 79f
8:00pm 9 10 mph 1018.4mb 79f
7:00pm 8
mph
1018.5mb 79f
6:00pm 8
mph
1018.4mb 79f